Time;durP1;ratioP1;P1;durP2;ratioP2;P2;SDS_P1;SDS_P2;PMS_P1;PMS_P2;Temp;Humidity;BMP_temperature;BMP_pressure;BME280_temperature;BME280_humidity;BME280_pressure;Samples;Min_cycle;Max_cycle;Signal;HPM_P1;HPM_P2
2022/02/09 00:03:06;;;;;;;4.13;2.75;;;22.40;45.30;;;;;;6229757;27;80441;-66
2022/02/09 00:06:11;;;;;;;4.32;3.08;;;22.40;45.30;;;;;;6235017;27;80186;-65
2022/02/09 00:09:11;;;;;;;4.65;2.67;;;22.30;45.40;;;;;;6223042;27;80783;-64
2022/02/09 00:12:22;;;;;;;4.80;2.92;;;22.30;45.40;;;;;;6203798;27;81257;-65
2022/02/09 00:15:34;;;;;;;4.40;2.67;;;22.30;45.60;;;;;;6197822;28;80786;-65
2022/02/09 00:41:47;;;;;;;5.57;3.10;;;22.30;45.90;;;;;;6208452;28;81653;-64
2022/02/09 01:11:39;;;;;;;5.50;2.88;;;22.40;45.50;;;;;;6217886;27;80645;-64
2022/02/09 01:57:44;;;;;;;3.58;2.33;;;22.30;45.60;;;;;;6219589;28;80564;-64
2022/02/09 02:00:44;;;;;;;4.20;2.60;;;22.30;45.50;;;;;;6229911;28;80338;-64
2022/02/09 02:03:45;;;;;;;5.03;2.88;;;22.30;45.70;;;;;;6227406;28;88053;-64
2022/02/09 02:06:48;;;;;;;6.70;2.70;;;22.30;45.80;;;;;;6231332;27;80440;-64
2022/02/09 02:09:49;;;;;;;5.35;2.65;;;22.30;45.60;;;;;;6230038;28;82761;-64
2022/02/09 02:12:50;;;;;;;5.97;3.03;;;22.30;45.30;;;;;;6229955;27;81868;-64
2022/02/09 02:19:24;;;;;;;4.70;2.95;;;22.30;45.00;;;;;;6230000;28;81477;-64
2022/02/09 02:22:39;;;;;;;5.35;2.92;;;22.30;45.00;;;;;;6245315;27;80250;-64
2022/02/09 02:25:58;;;;;;;5.10;2.85;;;22.30;45.00;;;;;;6198229;28;81607;-63
2022/02/09 02:29:16;;;;;;;4.05;2.72;;;22.30;45.00;;;;;;6219688;27;85190;-64
2022/02/09 02:39:37;;;;;;;2.65;2.10;;;22.30;45.00;;;;;;6223414;28;81508;-65
2022/02/09 03:15:38;;;;;;;3.70;2.40;;;22.30;45.40;;;;;;6231407;27;80657;-65
2022/02/09 03:19:14;;;;;;;4.60;2.53;;;22.30;45.40;;;;;;6234306;27;80889;-65
2022/02/09 03:22:29;;;;;;;2.92;2.20;;;22.30;45.40;;;;;;6205885;27;80645;-64
2022/02/09 03:26:29;;;;;;;4.10;2.20;;;22.30;45.30;;;;;;6232830;27;80193;-64
2022/02/09 03:52:22;;;;;;;3.60;2.15;;;22.30;45.30;;;;;;6244356;27;80343;-64
2022/02/09 03:56:00;;;;;;;3.78;2.22;;;22.30;44.90;;;;;;6196630;27;80200;-65
2022/02/09 03:58:44;;;;;;;2.83;2.20;;;22.20;44.70;;;;;;6189939;28;83582;-64
2022/02/09 04:01:45;;;;;;;3.25;2.33;;;22.20;44.60;;;;;;6217921;28;80472;-65
2022/02/09 04:04:51;;;;;;;2.75;2.03;;;22.20;44.50;;;;;;6231219;28;80901;-65
2022/02/09 04:07:52;;;;;;;2.95;2.22;;;22.20;44.50;;;;;;6230844;27;84989;-65
2022/02/09 04:11:09;;;;;;;2.63;2.22;;;22.30;44.60;;;;;;6233212;28;81009;-64
2022/02/09 04:17:37;;;;;;;3.13;2.13;;;22.30;44.30;;;;;;6233869;27;80399;-65
2022/02/09 04:37:35;;;;;;;3.60;2.30;;;22.40;44.00;;;;;;6218895;28;80641;-65
2022/02/09 04:57:17;;;;;;;2.00;1.80;;;22.60;44.30;;;;;;6192213;28;80978;-63
2022/02/09 05:00:37;;;;;;;3.20;2.15;;;22.60;44.40;;;;;;6203964;28;80726;-63
2022/02/09 05:26:09;;;;;;;4.25;2.28;;;22.80;46.30;;;;;;6208008;28;81462;-63
2022/02/09 05:29:10;;;;;;;2.55;1.98;;;22.70;47.70;;;;;;6225909;28;80589;-64
2022/02/09 05:32:10;;;;;;;4.85;1.88;;;22.70;48.40;;;;;;6220048;28;81213;-63
2022/02/09 05:35:11;;;;;;;2.10;1.83;;;22.60;49.40;;;;;;6226554;27;80769;-63
2022/02/09 05:38:11;;;;;;;6.60;1.95;;;22.70;50.00;;;;;;6236584;27;80883;-64
2022/02/09 05:41:12;;;;;;;4.32;1.75;;;22.70;50.30;;;;;;6198231;28;80378;-63
2022/02/09 05:44:14;;;;;;;3.03;2.03;;;22.80;50.70;;;;;;6223311;27;81497;-64
2022/02/09 05:50:32;;;;;;;1.88;1.35;;;22.80;51.00;;;;;;6202306;28;80423;-64
2022/02/09 05:57:10;;;;;;;1.60;1.42;;;22.80;51.20;;;;;;6225464;27;84652;-63
2022/02/09 06:00:05;;;;;;;3.80;1.58;;;22.90;51.60;;;;;;6228804;28;81907;-64
2022/02/09 06:03:06;;;;;;;2.17;1.60;;;22.90;51.80;;;;;;6213596;28;81910;-64
2022/02/09 06:06:09;;;;;;;1.25;1.15;;;22.90;52.00;;;;;;6212457;28;80443;-63
2022/02/09 06:09:09;;;;;;;2.97;1.98;;;22.80;52.10;;;;;;6200828;28;80944;-64
2022/02/09 06:21:49;;;;;;;7.93;3.53;;;22.80;53.60;;;;;;6218745;28;81076;-63
2022/02/09 06:24:50;;;;;;;17.65;8.90;;;22.80;53.90;;;;;;6201469;28;80559;-62
2022/02/09 06:27:50;;;;;;;16.88;8.10;;;22.80;53.60;;;;;;6206455;28;80956;-63
2022/02/09 06:30:51;;;;;;;19.13;8.68;;;22.80;53.50;;;;;;6206620;28;80801;-63
2022/02/09 06:33:51;;;;;;;19.55;10.20;;;22.80;53.60;;;;;;6222992;28;83156;-62
2022/02/09 06:37:11;;;;;;;15.35;7.97;;;22.80;53.90;;;;;;6227825;28;84492;-62
2022/02/09 06:40:14;;;;;;;13.32;7.50;;;22.80;53.60;;;;;;6217716;27;84058;-62
2022/02/09 06:43:15;;;;;;;13.93;6.32;;;22.90;53.20;;;;;;6217139;28;81453;-63
2022/02/09 06:46:15;;;;;;;12.55;5.78;;;22.80;53.20;;;;;;6220574;27;80517;-63
2022/02/09 06:49:17;;;;;;;11.55;6.40;;;22.90;53.00;;;;;;6212806;28;80976;-63
2022/02/09 06:52:18;;;;;;;9.27;5.32;;;22.90;52.80;;;;;;6219510;28;80614;-62
2022/02/09 06:55:21;;;;;;;6.80;4.38;;;22.90;52.90;;;;;;6217022;28;80303;-63
2022/02/09 07:01:51;;;;;;;9.02;4.22;;;22.80;52.60;;;;;;6221475;28;85048;-64
2022/02/09 07:04:52;;;;;;;8.77;4.63;;;22.80;52.50;;;;;;6213287;28;80478;-64
2022/02/09 07:07:52;;;;;;;6.55;3.83;;;22.80;52.30;;;;;;6219313;27;80490;-64
2022/02/09 07:10:53;;;;;;;6.55;3.70;;;22.70;52.60;;;;;;6215820;27;80818;-63
2022/02/09 07:13:54;;;;;;;4.45;3.10;;;22.70;52.20;;;;;;6219362;28;80917;-63
2022/02/09 07:16:55;;;;;;;5.65;3.08;;;22.80;51.90;;;;;;6214475;28;80584;-64
2022/02/09 07:26:41;;;;;;;4.75;3.00;;;22.80;51.70;;;;;;6230975;27;80876;-64
2022/02/09 07:29:41;;;;;;;4.35;3.13;;;22.80;51.40;;;;;;6220674;28;80382;-66
2022/02/09 07:32:42;;;;;;;4.57;3.20;;;22.80;51.30;;;;;;6226123;27;80446;-64
2022/02/09 07:35:42;;;;;;;5.80;2.95;;;22.80;51.40;;;;;;6204828;28;80788;-64
2022/02/09 07:38:44;;;;;;;5.10;2.97;;;22.80;51.10;;;;;;6207750;28;81757;-64
2022/02/09 07:41:47;;;;;;;4.18;2.80;;;22.80;50.70;;;;;;6208977;28;81136;-63
2022/02/09 07:45:06;;;;;;;5.15;2.53;;;22.80;50.70;;;;;;6202858;28;80776;-64
2022/02/09 07:54:21;;;;;;;3.28;2.20;;;22.70;50.40;;;;;;6217984;28;80869;-63
2022/02/09 07:57:22;;;;;;;5.78;2.80;;;22.70;50.40;;;;;;6212321;28;80780;-63
2022/02/09 08:00:22;;;;;;;5.85;2.60;;;22.70;50.50;;;;;;6245787;27;80669;-68
2022/02/09 08:03:23;;;;;;;9.80;2.60;;;22.70;50.40;;;;;;6227045;27;80341;-63
2022/02/09 08:06:26;;;;;;;4.70;2.58;;;22.70;50.60;;;;;;6206046;27;80328;-65
2022/02/09 08:09:35;;;;;;;5.97;3.08;;;22.70;50.90;;;;;;6192473;28;80703;-64
2022/02/09 08:12:53;;;;;;;4.55;2.60;;;22.80;50.80;;;;;;6215159;28;80826;-64
2022/02/09 08:26:46;;;;;;;5.88;2.75;;;22.80;50.80;;;;;;6223910;28;85338;-65
2022/02/09 08:35:25;;;;;;;3.42;2.38;;;22.80;51.70;;;;;;6204578;28;80466;-63
2022/02/09 08:38:29;;;;;;;4.00;2.38;;;22.80;51.70;;;;;;6197060;28;82035;-65
2022/02/09 08:41:30;;;;;;;3.80;2.30;;;22.80;52.80;;;;;;6195646;28;80365;-63
2022/02/09 08:44:30;;;;;;;6.53;2.40;;;22.80;53.40;;;;;;6199690;28;80515;-63
2022/02/09 08:47:31;;;;;;;4.47;2.40;;;22.80;53.60;;;;;;6218888;28;81543;-62
2022/02/09 08:50:31;;;;;;;7.60;2.13;;;22.90;53.80;;;;;;6220069;28;80804;-64
2022/02/09 08:53:33;;;;;;;3.13;2.17;;;22.90;53.50;;;;;;6219691;28;80937;-64
2022/02/09 08:56:38;;;;;;;2.95;2.33;;;22.90;53.30;;;;;;6216108;28;82187;-64
2022/02/09 08:59:39;;;;;;;3.22;2.10;;;23.00;53.00;;;;;;6220473;27;81551;-64
2022/02/09 09:02:45;;;;;;;4.97;2.20;;;23.00;52.50;;;;;;6220071;27;80738;-64
2022/02/09 09:05:50;;;;;;;5.18;1.90;;;23.00;52.30;;;;;;6230682;27;81087;-63
2022/02/09 09:40:26;;;;;;;3.42;1.60;;;23.10;50.90;;;;;;6193263;28;80681;-64
2022/02/09 10:02:35;;;;;;;;;;;23.20;50.60;;;;;;6183046;28;80912;-62
2022/02/09 10:34:37;;;;;;;3.30;2.20;;;23.40;48.20;;;;;;6211522;27;81313;-62
2022/02/09 10:37:37;;;;;;;5.45;2.50;;;23.40;47.90;;;;;;6215844;27;81508;-62
2022/02/09 10:40:43;;;;;;;4.43;2.58;;;23.40;47.50;;;;;;6221059;28;80529;-63
2022/02/09 10:43:45;;;;;;;;;;;23.50;47.30;;;;;;6222121;28;80523;-63
2022/02/09 10:46:46;;;;;;;4.00;2.80;;;23.40;46.80;;;;;;6224298;28;80509;-63
2022/02/09 10:49:47;;;;;;;4.80;2.95;;;23.50;46.70;;;;;;6224935;27;80643;-63
2022/02/09 10:52:49;;;;;;;3.85;2.83;;;23.40;46.40;;;;;;6218997;28;80584;-62
2022/02/09 10:55:49;;;;;;;5.60;2.95;;;23.40;46.20;;;;;;6216186;28;81249;-63
2022/02/09 10:58:50;;;;;;;4.03;2.90;;;23.40;46.00;;;;;;6219421;28;81303;-64
2022/02/09 11:01:50;;;;;;;4.75;3.17;;;23.50;45.80;;;;;;6195232;28;87544;-65
2022/02/09 11:04:51;;;;;;;6.90;3.20;;;23.50;45.50;;;;;;6193430;28;81528;-64
2022/02/09 11:07:52;;;;;;;3.60;2.53;;;23.50;45.20;;;;;;6223415;27;80887;-63
2022/02/09 11:10:54;;;;;;;6.38;3.03;;;23.50;45.30;;;;;;6221699;28;80799;-63
2022/02/09 11:13:54;;;;;;;4.65;2.95;;;23.50;45.50;;;;;;6220974;28;81147;-62
2022/02/09 11:16:55;;;;;;;5.22;2.92;;;23.50;45.80;;;;;;6224299;27;81900;-62
2022/02/09 11:19:56;;;;;;;3.42;2.30;;;23.50;46.10;;;;;;6232081;28;80636;-64
2022/02/09 11:22:56;;;;;;;4.43;2.72;;;23.50;46.30;;;;;;6219440;27;81032;-63
2022/02/09 11:25:58;;;;;;;4.25;2.50;;;23.60;46.50;;;;;;6215972;27;81779;-64
2022/02/09 11:28:58;;;;;;;5.85;3.38;;;23.60;46.40;;;;;;6221241;28;80330;-65
2022/02/09 11:31:59;;;;;;;4.35;2.90;;;23.50;45.00;;;;;;6232664;28;81164;-64
2022/02/09 11:35:10;;;;;;;11.85;5.70;;;23.40;44.40;;;;;;6232909;28;81620;-64
2022/02/09 11:38:16;;;;;;;30.55;15.23;;;23.10;44.10;;;;;;6226407;28;81571;-64
2022/02/09 11:41:19;;;;;;;37.72;20.85;;;22.90;44.20;;;;;;6226286;28;84347;-64
2022/02/09 11:44:21;;;;;;;45.92;22.70;;;22.80;44.50;;;;;;6225195;27;84084;-64
2022/02/09 11:47:23;;;;;;;38.95;20.98;;;22.70;44.40;;;;;;6219576;28;86073;-64
2022/02/09 11:50:52;;;;;;;35.75;16.70;;;22.50;44.50;;;;;;6220937;27;84103;-64
2022/02/09 12:10:01;;;;;;;36.97;20.20;;;22.70;46.20;;;;;;6227537;27;84177;-63
2022/02/09 12:13:05;;;;;;;35.85;18.70;;;22.80;46.50;;;;;;6233016;27;83783;-63
2022/02/09 12:16:33;;;;;;;37.08;17.23;;;22.80;46.70;;;;;;6194890;28;84156;-62
2022/02/09 12:19:44;;;;;;;36.97;18.63;;;22.90;46.90;;;;;;6210260;27;84106;-64
2022/02/09 12:23:02;;;;;;;37.78;17.45;;;22.90;47.20;;;;;;6205924;28;83145;-63
2022/02/09 12:26:04;;;;;;;28.73;15.52;;;22.90;47.10;;;;;;6225852;27;87954;-64
2022/02/09 12:29:04;;;;;;;27.13;15.52;;;22.90;47.30;;;;;;6229885;27;83003;-66
2022/02/09 12:32:05;;;;;;;28.25;14.40;;;22.90;47.30;;;;;;6225566;27;83962;-63
2022/02/09 12:35:06;;;;;;;22.90;13.68;;;23.00;47.40;;;;;;6224435;27;83815;-63
2022/02/09 12:38:06;;;;;;;23.88;13.20;;;22.90;47.30;;;;;;6222656;28;82843;-64
2022/02/09 12:41:07;;;;;;;23.70;12.82;;;23.00;47.40;;;;;;6215947;28;83050;-63
2022/02/09 12:44:07;;;;;;;19.23;11.35;;;23.00;47.50;;;;;;6212549;28;84851;-63
2022/02/09 12:47:08;;;;;;;22.50;11.48;;;23.00;47.40;;;;;;6214449;27;83816;-65
2022/02/09 12:50:08;;;;;;;19.80;11.43;;;23.00;47.40;;;;;;6212009;27;84425;-64
2022/02/09 12:53:10;;;;;;;19.45;11.48;;;23.00;47.10;;;;;;6195700;28;83551;-63
2022/02/09 12:56:10;;;;;;;20.88;11.20;;;23.00;47.00;;;;;;6189237;28;84624;-63
2022/02/09 12:59:12;;;;;;;20.05;10.52;;;23.00;47.10;;;;;;6200666;28;82922;-63
2022/02/09 13:02:12;;;;;;;17.42;10.10;;;23.00;46.80;;;;;;6228211;27;83206;-64
2022/02/09 13:05:13;;;;;;;18.75;10.18;;;23.10;46.90;;;;;;6221842;27;83386;-64
2022/02/09 13:08:13;;;;;;;16.08;9.23;;;23.00;46.60;;;;;;6212978;28;82928;-64
2022/02/09 13:14:28;;;;;;;16.13;10.27;;;23.00;46.40;;;;;;6213719;28;80479;-63
2022/02/09 13:17:41;;;;;;;20.90;11.93;;;23.00;46.50;;;;;;6196346;28;83460;-64
2022/02/09 14:02:59;;;;;;;12.70;7.70;;;22.80;47.10;;;;;;6209987;28;81187;-64
2022/02/09 14:19:29;;;;;;;11.25;6.03;;;22.90;48.10;;;;;;6206835;28;80300;-62
2022/02/09 14:54:53;;;;;;;7.80;4.43;;;23.10;47.50;;;;;;6234291;27;80645;-62
2022/02/09 14:58:09;;;;;;;9.20;4.32;;;23.10;47.30;;;;;;6223753;28;80468;-62
2022/02/09 15:01:18;;;;;;;8.85;4.32;;;23.10;47.20;;;;;;6216989;28;81460;-62
2022/02/09 15:04:29;;;;;;;7.38;4.78;;;23.20;47.10;;;;;;6216776;27;80884;-61
2022/02/09 15:07:47;;;;;;;6.95;4.40;;;23.20;47.10;;;;;;6193846;27;80865;-61
2022/02/09 15:23:29;;;;;;;6.28;3.95;;;23.30;46.90;;;;;;6220312;28;80515;-61
2022/02/09 15:26:29;;;;;;;8.00;4.15;;;23.30;46.70;;;;;;6219200;27;80707;-61
2022/02/09 15:29:30;;;;;;;6.50;3.75;;;23.30;46.70;;;;;;6218482;27;83680;-63
2022/02/09 15:32:36;;;;;;;6.03;4.03;;;23.40;46.80;;;;;;6200251;28;80342;-66
2022/02/09 15:35:40;;;;;;;7.40;4.25;;;23.40;46.90;;;;;;6211532;28;80446;-63
2022/02/09 15:38:46;;;;;;;5.75;4.05;;;23.40;46.70;;;;;;6221534;27;80561;-62
2022/02/09 16:24:55;;;;;;;5.20;3.75;;;23.40;45.50;;;;;;6219146;27;80203;-66
2022/02/09 16:38:02;;;;;;;8.75;4.75;;;23.30;44.70;;;;;;6191300;28;80787;-64
2022/02/09 16:44:37;;;;;;;6.82;4.97;;;23.20;44.60;;;;;;6213708;28;81218;-64
2022/02/09 16:50:48;;;;;;;7.25;4.28;;;23.30;45.10;;;;;;6225043;28;80598;-65
2022/02/09 16:54:06;;;;;;;8.43;4.57;;;23.30;45.80;;;;;;6220083;27;83387;-67
2022/02/09 17:20:03;;;;;;;6.57;4.50;;;23.30;46.70;;;;;;6192252;28;85329;-66
2022/02/09 17:23:04;;;;;;;7.13;4.38;;;23.30;46.50;;;;;;6216386;27;80760;-64
2022/02/09 17:26:05;;;;;;;8.57;4.63;;;23.30;47.10;;;;;;6215514;27;81203;-64
2022/02/09 17:29:05;;;;;;;5.45;3.92;;;23.20;46.70;;;;;;6214599;27;80681;-65
2022/02/09 17:32:23;;;;;;;6.35;4.47;;;23.20;46.80;;;;;;6214110;28;81393;-66
2022/02/09 17:35:30;;;;;;;5.60;3.97;;;23.30;46.70;;;;;;6192393;28;80884;-68
2022/02/09 17:38:41;;;;;;;6.72;4.53;;;23.30;46.40;;;;;;6231560;27;80675;-68
2022/02/09 17:58:08;;;;;;;6.93;4.75;;;23.20;45.70;;;;;;6232160;27;80817;-65
2022/02/09 18:01:08;;;;;;;6.93;4.45;;;23.20;45.20;;;;;;6230483;28;80484;-65
2022/02/09 18:04:09;;;;;;;5.85;4.20;;;23.20;45.60;;;;;;6231742;27;81584;-66
2022/02/09 18:07:14;;;;;;;5.28;3.85;;;23.20;45.80;;;;;;6234036;27;81875;-67
2022/02/09 18:10:29;;;;;;;7.73;4.70;;;23.20;45.90;;;;;;6203737;28;81421;-65
2022/02/09 18:14:00;;;;;;;6.38;4.43;;;23.20;45.70;;;;;;6226625;28;80456;-62
2022/02/09 18:30:30;;;;;;;7.20;4.78;;;23.20;44.70;;;;;;6228194;28;80904;-64
2022/02/09 18:33:53;;;;;;;6.20;4.50;;;23.20;44.60;;;;;;6224581;28;80550;-69
2022/02/09 18:43:30;;;;;;;10.32;4.80;;;23.10;44.40;;;;;;6217610;28;82837;-65
2022/02/09 18:46:43;;;;;;;8.02;4.88;;;23.10;44.30;;;;;;6220644;28;80877;-64
2022/02/09 19:00:22;;;;;;;7.00;4.53;;;23.00;44.10;;;;;;6220938;27;80523;-65
2022/02/09 19:16:43;;;;;;;6.95;4.72;;;23.00;43.90;;;;;;6226485;27;80289;-63
2022/02/09 19:26:45;;;;;;;7.13;4.95;;;23.00;43.80;;;;;;6190026;28;81515;-64
2022/02/09 19:29:57;;;;;;;6.78;4.68;;;23.00;43.70;;;;;;6192585;28;81462;-64
2022/02/09 19:49:52;;;;;;;7.75;5.38;;;23.00;43.80;;;;;;6219156;27;80486;-64
2022/02/09 19:53:08;;;;;;;7.47;5.30;;;23.00;43.80;;;;;;6201432;28;86069;-63
2022/02/09 19:56:21;;;;;;;8.18;5.43;;;23.00;43.80;;;;;;6218633;27;81020;-64
2022/02/09 19:59:22;;;;;;;9.35;5.90;;;23.00;43.70;;;;;;6225735;28;81067;-63
2022/02/09 20:02:25;;;;;;;8.30;5.15;;;23.10;43.70;;;;;;6216682;28;80524;-63
2022/02/09 20:05:26;;;;;;;8.10;5.20;;;23.10;43.50;;;;;;6238043;27;80665;-63
2022/02/09 20:08:27;;;;;;;10.30;5.50;;;23.10;43.50;;;;;;6223587;28;81491;-64
2022/02/09 20:11:27;;;;;;;7.63;5.28;;;23.10;43.30;;;;;;6221043;27;81229;-64
2022/02/09 20:14:29;;;;;;;9.43;5.68;;;23.10;43.30;;;;;;6224055;28;80883;-64
2022/02/09 20:17:29;;;;;;;7.65;5.55;;;23.20;43.40;;;;;;6223416;27;80441;-64
2022/02/09 20:20:32;;;;;;;9.45;5.95;;;23.20;43.40;;;;;;6210089;27;81375;-64
2022/02/09 20:23:34;;;;;;;7.82;5.57;;;23.20;43.30;;;;;;6198765;28;80846;-63
2022/02/09 20:26:35;;;;;;;9.25;5.78;;;23.20;43.30;;;;;;6203416;28;80921;-66
2022/02/09 20:29:38;;;;;;;9.82;6.15;;;23.20;43.30;;;;;;6198790;28;81487;-64
2022/02/09 20:32:45;;;;;;;8.80;5.00;;;23.20;43.40;;;;;;6215842;28;81514;-63
2022/02/09 20:35:46;;;;;;;8.93;5.20;;;23.30;43.40;;;;;;6219717;28;80407;-64
2022/02/09 20:38:52;;;;;;;7.95;5.30;;;23.30;43.20;;;;;;6218712;28;80445;-63
2022/02/09 20:41:54;;;;;;;8.60;5.25;;;23.30;43.30;;;;;;6221918;27;81487;-62
2022/02/09 20:45:05;;;;;;;8.55;5.53;;;23.30;43.90;;;;;;6216494;28;81301;-62
2022/02/09 20:48:12;;;;;;;7.95;5.00;;;23.30;43.20;;;;;;6183273;28;82193;-62
2022/02/09 20:51:12;;;;;;;7.72;5.03;;;23.40;43.10;;;;;;6198907;28;80555;-61
2022/02/09 20:54:13;;;;;;;6.80;4.78;;;23.40;43.00;;;;;;6196272;28;81693;-61
2022/02/09 20:57:13;;;;;;;7.65;5.03;;;23.40;43.10;;;;;;6208240;28;81536;-62
2022/02/09 21:00:21;;;;;;;7.10;5.10;;;23.40;42.70;;;;;;6219070;28;80592;-64
2022/02/09 21:12:43;;;;;;;6.95;4.60;;;23.40;42.50;;;;;;6233183;27;80894;-65
2022/02/09 21:22:33;;;;;;;9.52;5.25;;;23.30;42.40;;;;;;6213232;27;81688;-62
2022/02/09 21:58:22;;;;;;;6.88;4.97;;;23.20;42.00;;;;;;6216398;28;81345;-64
2022/02/09 22:21:42;;;;;;;8.48;5.00;;;23.10;41.90;;;;;;6228122;27;80389;-64
2022/02/09 22:27:52;;;;;;;6.90;4.43;;;23.10;41.70;;;;;;6227649;27;80621;-64
2022/02/09 22:50:27;;;;;;;7.03;4.03;;;23.00;41.40;;;;;;6225891;28;80765;-64
2022/02/09 22:56:46;;;;;;;6.18;3.80;;;23.00;41.40;;;;;;6217866;28;80576;-64
2022/02/09 22:59:58;;;;;;;6.65;3.65;;;23.00;41.40;;;;;;6222757;27;81583;-64
2022/02/09 23:02:59;;;;;;;6.38;4.25;;;23.00;41.40;;;;;;6219729;27;80502;-65
2022/02/09 23:12:32;;;;;;;5.72;3.42;;;23.00;41.40;;;;;;6205868;28;80900;-66
2022/02/09 23:15:45;;;;;;;4.75;3.38;;;22.90;41.30;;;;;;6189158;28;80343;-65
2022/02/09 23:26:13;;;;;;;6.13;3.65;;;22.90;41.40;;;;;;6230433;27;80678;-65
